KACK/ACK METAR and TAF weather

Enter ICAO airport designator
Station Type Date Time Source
KACK METAR 2019/02/23 16:53 UTC NOAA

KACK 231653Z 13007KT 10SM FEW030 05/M03 A3044 RMK AO2 SLP307 T00501028


Station Type Date Time Source
KACK Decoded METAR 2019/02/23 16:53 UTC NOAA

NANTUCKET MEMORIAL AIRPORT, MA, United States (KACK) 41-15N 70-04W 16M
Feb 23, 2019 - 11:53 AM EST / 2019.02.23 1653 UTC
Wind: from the SE (130 degrees) at 8 MPH (7 KT):0
Visibility: 10 mile(s):0
Sky conditions: mostly clear
Temperature: 41.0 F (5.0 C)
Dew Point: 27.0 F (-2.8 C)
Relative Humidity: 57%
Pressure (altimeter): 30.44 in. Hg (1030 hPa)
ob: KACK 231653Z 13007KT 10SM FEW030 05/M03 A3044 RMK AO2 SLP307 T00501028
cycle: 17

Station Type Date Time Source
KACK TAF 2019/02/23 12:33 UTC NOAA

TAF KACK 231131Z 2312/2412 02007KT P6SM FEW250
FM231600 05005KT P6SM SCT250
FM240100 13006KT P6SM BKN250
FM240900 12013KT P6SM -RA OVC050
FM241100 12018KT P6SM -RA OVC030


Example: see airport list